sensor_id;sensor_type;location;lat;lon;timestamp;temperature;humidity
7461;DHT22;6757;52.258;12.840;2023-07-31T00:02:02;14.30;99.90
7461;DHT22;6757;52.258;12.840;2023-07-31T00:04:29;14.30;99.90
7461;DHT22;6757;52.258;12.840;2023-07-31T00:06:56;14.30;99.90
7461;DHT22;6757;52.258;12.840;2023-07-31T00:09:23;14.30;99.90
7461;DHT22;6757;52.258;12.840;2023-07-31T00:11:50;14.30;99.90
7461;DHT22;6757;52.258;12.840;2023-07-31T00:14:17;14.30;99.90
7461;DHT22;6757;52.258;12.840;2023-07-31T00:16:44;14.40;99.90
7461;DHT22;6757;52.258;12.840;2023-07-31T00:19:12;14.40;99.90
7461;DHT22;6757;52.258;12.840;2023-07-31T00:21:39;14.40;99.90
7461;DHT22;6757;52.258;12.840;2023-07-31T00:24:06;14.40;99.90
7461;DHT22;6757;52.258;12.840;2023-07-31T00:26:33;14.40;99.90
7461;DHT22;6757;52.258;12.840;2023-07-31T00:29:00;14.40;99.90
7461;DHT22;6757;52.258;12.840;2023-07-31T00:31:27;14.40;99.90
7461;DHT22;6757;52.258;12.840;2023-07-31T00:33:54;14.50;99.90
7461;DHT22;6757;52.258;12.840;2023-07-31T00:36:22;14.50;99.90
7461;DHT22;6757;52.258;12.840;2023-07-31T00:38:49;14.50;99.90
7461;DHT22;6757;52.258;12.840;2023-07-31T00:41:16;14.50;99.90
7461;DHT22;6757;52.258;12.840;2023-07-31T00:43:43;14.50;99.90
7461;DHT22;6757;52.258;12.840;2023-07-31T00:46:10;14.50;99.90
7461;DHT22;6757;52.258;12.840;2023-07-31T00:48:37;14.60;99.90
7461;DHT22;6757;52.258;12.840;2023-07-31T00:51:05;14.50;99.90
7461;DHT22;6757;52.258;12.840;2023-07-31T00:53:34;14.60;99.90
7461;DHT22;6757;52.258;12.840;2023-07-31T00:56:01;14.60;99.90
7461;DHT22;6757;52.258;12.840;2023-07-31T00:58:28;14.60;99.90
7461;DHT22;6757;52.258;12.840;2023-07-31T01:00:56;14.60;99.90
7461;DHT22;6757;52.258;12.840;2023-07-31T01:03:22;14.60;99.90
7461;DHT22;6757;52.258;12.840;2023-07-31T01:05:57;14.60;99.90
7461;DHT22;6757;52.258;12.840;2023-07-31T01:08:36;14.60;99.90
7461;DHT22;6757;52.258;12.840;2023-07-31T01:11:11;14.60;99.90
7461;DHT22;6757;52.258;12.840;2023-07-31T01:13:42;14.60;99.90
7461;DHT22;6757;52.258;12.840;2023-07-31T01:16:09;14.60;99.90
7461;DHT22;6757;52.258;12.840;2023-07-31T01:18:36;14.50;99.90
7461;DHT22;6757;52.258;12.840;2023-07-31T01:21:12;14.60;99.90
7461;DHT22;6757;52.258;12.840;2023-07-31T01:24:12;14.60;99.90
7461;DHT22;6757;52.258;12.840;2023-07-31T01:26:49;14.60;99.90
7461;DHT22;6757;52.258;12.840;2023-07-31T01:29:25;14.60;99.90
7461;DHT22;6757;52.258;12.840;2023-07-31T01:31:57;14.60;99.90
7461;DHT22;6757;52.258;12.840;2023-07-31T01:34:29;14.60;99.90
7461;DHT22;6757;52.258;12.840;2023-07-31T01:36:56;14.70;99.90
7461;DHT22;6757;52.258;12.840;2023-07-31T01:39:23;14.70;99.90
7461;DHT22;6757;52.258;12.840;2023-07-31T01:41:52;14.70;99.90
7461;DHT22;6757;52.258;12.840;2023-07-31T01:44:19;14.70;99.90
7461;DHT22;6757;52.258;12.840;2023-07-31T01:46:46;14.70;99.90
7461;DHT22;6757;52.258;12.840;2023-07-31T01:49:13;14.70;99.90
7461;DHT22;6757;52.258;12.840;2023-07-31T01:51:40;14.70;99.90
7461;DHT22;6757;52.258;12.840;2023-07-31T01:54:07;14.70;99.90
7461;DHT22;6757;52.258;12.840;2023-07-31T01:56:34;14.80;99.90
7461;DHT22;6757;52.258;12.840;2023-07-31T01:59:02;14.70;99.90
7461;DHT22;6757;52.258;12.840;2023-07-31T02:01:29;14.70;99.90
7461;DHT22;6757;52.258;12.840;2023-07-31T02:03:56;14.80;99.90
7461;DHT22;6757;52.258;12.840;2023-07-31T02:06:23;15.10;99.90
7461;DHT22;6757;52.258;12.840;2023-07-31T02:08:50;14.80;99.90
7461;DHT22;6757;52.258;12.840;2023-07-31T02:11:17;14.80;99.90
7461;DHT22;6757;52.258;12.840;2023-07-31T02:13:44;14.80;99.90
7461;DHT22;6757;52.258;12.840;2023-07-31T02:16:12;14.80;99.90
7461;DHT22;6757;52.258;12.840;2023-07-31T02:18:39;14.80;99.90
7461;DHT22;6757;52.258;12.840;2023-07-31T02:21:06;14.80;99.90
7461;DHT22;6757;52.258;12.840;2023-07-31T02:23:33;14.80;99.90
7461;DHT22;6757;52.258;12.840;2023-07-31T02:26:00;14.80;99.90
7461;DHT22;6757;52.258;12.840;2023-07-31T02:28:28;14.80;99.90
7461;DHT22;6757;52.258;12.840;2023-07-31T02:30:56;14.70;99.90
7461;DHT22;6757;52.258;12.840;2023-07-31T02:33:24;14.80;99.90
7461;DHT22;6757;52.258;12.840;2023-07-31T02:35:51;14.80;99.90
7461;DHT22;6757;52.258;12.840;2023-07-31T02:38:18;14.80;99.90
7461;DHT22;6757;52.258;12.840;2023-07-31T02:40:45;14.80;99.90
7461;DHT22;6757;52.258;12.840;2023-07-31T02:43:12;14.80;99.90
7461;DHT22;6757;52.258;12.840;2023-07-31T02:45:39;14.80;99.90
7461;DHT22;6757;52.258;12.840;2023-07-31T02:48:06;14.90;99.90
7461;DHT22;6757;52.258;12.840;2023-07-31T02:50:34;14.90;99.90
7461;DHT22;6757;52.258;12.840;2023-07-31T02:53:01;14.90;99.90
7461;DHT22;6757;52.258;12.840;2023-07-31T02:55:28;14.90;99.90
7461;DHT22;6757;52.258;12.840;2023-07-31T02:57:55;14.90;99.90
7461;DHT22;6757;52.258;12.840;2023-07-31T03:00:23;14.90;99.90
7461;DHT22;6757;52.258;12.840;2023-07-31T03:02:50;14.90;99.90
7461;DHT22;6757;52.258;12.840;2023-07-31T03:05:17;14.90;99.90
7461;DHT22;6757;52.258;12.840;2023-07-31T03:07:46;14.90;99.90
7461;DHT22;6757;52.258;12.840;2023-07-31T03:10:13;14.90;99.90
7461;DHT22;6757;52.258;12.840;2023-07-31T03:12:40;14.90;99.90
7461;DHT22;6757;52.258;12.840;2023-07-31T03:15:08;15.10;99.90
7461;DHT22;6757;52.258;12.840;2023-07-31T03:17:35;14.80;99.90
7461;DHT22;6757;52.258;12.840;2023-07-31T03:20:03;14.80;99.90
7461;DHT22;6757;52.258;12.840;2023-07-31T03:22:31;14.70;99.90
7461;DHT22;6757;52.258;12.840;2023-07-31T03:24:59;14.70;99.90
7461;DHT22;6757;52.258;12.840;2023-07-31T03:27:26;14.70;99.90
7461;DHT22;6757;52.258;12.840;2023-07-31T03:29:53;14.70;99.90
7461;DHT22;6757;52.258;12.840;2023-07-31T03:32:21;14.70;99.90
7461;DHT22;6757;52.258;12.840;2023-07-31T03:34:49;14.70;99.90
7461;DHT22;6757;52.258;12.840;2023-07-31T03:37:16;14.70;99.90
7461;DHT22;6757;52.258;12.840;2023-07-31T03:39:43;14.70;99.90
7461;DHT22;6757;52.258;12.840;2023-07-31T03:42:11;14.70;99.90
7461;DHT22;6757;52.258;12.840;2023-07-31T03:44:38;14.70;99.90
7461;DHT22;6757;52.258;12.840;2023-07-31T03:47:05;14.60;99.90
7461;DHT22;6757;52.258;12.840;2023-07-31T03:49:32;14.60;99.90
7461;DHT22;6757;52.258;12.840;2023-07-31T03:51:59;14.60;99.90
7461;DHT22;6757;52.258;12.840;2023-07-31T03:54:26;14.60;99.90
7461;DHT22;6757;52.258;12.840;2023-07-31T03:56:53;14.60;99.90
7461;DHT22;6757;52.258;12.840;2023-07-31T03:59:21;14.60;99.90
7461;DHT22;6757;52.258;12.840;2023-07-31T04:01:48;14.60;99.90
7461;DHT22;6757;52.258;12.840;2023-07-31T04:04:15;14.70;99.90
7461;DHT22;6757;52.258;12.840;2023-07-31T04:06:42;14.70;99.90
7461;DHT22;6757;52.258;12.840;2023-07-31T04:09:09;14.70;99.90
7461;DHT22;6757;52.258;12.840;2023-07-31T04:11:36;14.70;99.90
7461;DHT22;6757;52.258;12.840;2023-07-31T04:14:04;14.70;99.90
7461;DHT22;6757;52.258;12.840;2023-07-31T04:16:32;14.80;99.90
7461;DHT22;6757;52.258;12.840;2023-07-31T04:18:59;14.70;99.90
7461;DHT22;6757;52.258;12.840;2023-07-31T04:21:28;14.70;99.90
7461;DHT22;6757;52.258;12.840;2023-07-31T04:23:55;14.70;99.90
7461;DHT22;6757;52.258;12.840;2023-07-31T04:26:23;14.70;99.90
7461;DHT22;6757;52.258;12.840;2023-07-31T04:28:50;14.80;99.90
7461;DHT22;6757;52.258;12.840;2023-07-31T04:31:17;14.80;99.90
7461;DHT22;6757;52.258;12.840;2023-07-31T04:33:45;14.80;99.90
7461;DHT22;6757;52.258;12.840;2023-07-31T04:36:12;14.80;99.90
7461;DHT22;6757;52.258;12.840;2023-07-31T04:38:39;14.80;99.90
7461;DHT22;6757;52.258;12.840;2023-07-31T04:41:07;14.80;99.90
7461;DHT22;6757;52.258;12.840;2023-07-31T04:43:34;14.80;99.90
7461;DHT22;6757;52.258;12.840;2023-07-31T04:46:04;14.80;99.90
7461;DHT22;6757;52.258;12.840;2023-07-31T04:48:31;14.90;99.90
7461;DHT22;6757;52.258;12.840;2023-07-31T04:50:59;14.90;99.90
7461;DHT22;6757;52.258;12.840;2023-07-31T04:53:26;14.90;99.90
7461;DHT22;6757;52.258;12.840;2023-07-31T04:55:53;14.90;99.90
7461;DHT22;6757;52.258;12.840;2023-07-31T04:58:20;14.90;99.90
7461;DHT22;6757;52.258;12.840;2023-07-31T05:00:47;14.90;99.90
7461;DHT22;6757;52.258;12.840;2023-07-31T05:03:14;14.90;99.90
7461;DHT22;6757;52.258;12.840;2023-07-31T05:05:41;14.90;99.90
7461;DHT22;6757;52.258;12.840;2023-07-31T05:08:09;15.00;99.90
7461;DHT22;6757;52.258;12.840;2023-07-31T05:10:36;15.00;99.90
7461;DHT22;6757;52.258;12.840;2023-07-31T05:13:03;15.00;99.90
7461;DHT22;6757;52.258;12.840;2023-07-31T05:15:30;15.10;99.90
7461;DHT22;6757;52.258;12.840;2023-07-31T05:17:57;15.10;99.90
7461;DHT22;6757;52.258;12.840;2023-07-31T05:20:24;15.10;99.90
7461;DHT22;6757;52.258;12.840;2023-07-31T05:22:53;15.20;99.90
7461;DHT22;6757;52.258;12.840;2023-07-31T05:25:21;15.20;99.90
7461;DHT22;6757;52.258;12.840;2023-07-31T05:27:48;15.20;99.90
7461;DHT22;6757;52.258;12.840;2023-07-31T05:30:15;15.20;99.90
7461;DHT22;6757;52.258;12.840;2023-07-31T05:32:42;15.30;99.90
7461;DHT22;6757;52.258;12.840;2023-07-31T05:35:09;15.30;99.90
7461;DHT22;6757;52.258;12.840;2023-07-31T05:37:36;15.30;99.90
7461;DHT22;6757;52.258;12.840;2023-07-31T05:40:04;15.40;99.90
7461;DHT22;6757;52.258;12.840;2023-07-31T05:42:33;15.40;99.90
7461;DHT22;6757;52.258;12.840;2023-07-31T05:45:02;15.50;99.90
7461;DHT22;6757;52.258;12.840;2023-07-31T05:47:29;15.50;99.90
7461;DHT22;6757;52.258;12.840;2023-07-31T05:49:56;15.50;99.90
7461;DHT22;6757;52.258;12.840;2023-07-31T05:52:23;15.50;99.90
7461;DHT22;6757;52.258;12.840;2023-07-31T05:54:50;15.60;99.90
7461;DHT22;6757;52.258;12.840;2023-07-31T05:57:17;15.60;99.90
7461;DHT22;6757;52.258;12.840;2023-07-31T05:59:45;15.60;99.90
7461;DHT22;6757;52.258;12.840;2023-07-31T06:02:12;15.60;99.90
7461;DHT22;6757;52.258;12.840;2023-07-31T06:04:39;15.60;99.90
7461;DHT22;6757;52.258;12.840;2023-07-31T06:07:06;15.70;99.90
7461;DHT22;6757;52.258;12.840;2023-07-31T06:09:33;15.70;99.90
7461;DHT22;6757;52.258;12.840;2023-07-31T06:12:00;15.70;99.90
7461;DHT22;6757;52.258;12.840;2023-07-31T06:14:27;15.70;99.90
7461;DHT22;6757;52.258;12.840;2023-07-31T06:16:55;15.70;99.90
7461;DHT22;6757;52.258;12.840;2023-07-31T06:19:22;15.80;99.90
7461;DHT22;6757;52.258;12.840;2023-07-31T06:21:49;15.80;99.90
7461;DHT22;6757;52.258;12.840;2023-07-31T06:24:16;15.80;99.90
7461;DHT22;6757;52.258;12.840;2023-07-31T06:26:46;15.80;99.90
7461;DHT22;6757;52.258;12.840;2023-07-31T06:29:13;15.80;99.90
7461;DHT22;6757;52.258;12.840;2023-07-31T06:31:41;15.80;99.90
7461;DHT22;6757;52.258;12.840;2023-07-31T06:34:09;15.70;99.90
7461;DHT22;6757;52.258;12.840;2023-07-31T06:36:36;15.70;99.90
7461;DHT22;6757;52.258;12.840;2023-07-31T06:39:03;15.70;99.90
7461;DHT22;6757;52.258;12.840;2023-07-31T06:41:30;15.60;99.90
7461;DHT22;6757;52.258;12.840;2023-07-31T06:43:57;15.60;99.90
7461;DHT22;6757;52.258;12.840;2023-07-31T06:46:24;15.60;99.90
7461;DHT22;6757;52.258;12.840;2023-07-31T06:48:51;15.50;99.90
7461;DHT22;6757;52.258;12.840;2023-07-31T06:51:19;15.50;99.90
7461;DHT22;6757;52.258;12.840;2023-07-31T06:53:46;15.50;99.90
7461;DHT22;6757;52.258;12.840;2023-07-31T06:56:13;15.50;99.90
7461;DHT22;6757;52.258;12.840;2023-07-31T06:58:40;15.50;99.90
7461;DHT22;6757;52.258;12.840;2023-07-31T07:01:07;15.50;99.90
7461;DHT22;6757;52.258;12.840;2023-07-31T07:03:34;15.50;99.90
7461;DHT22;6757;52.258;12.840;2023-07-31T07:06:01;15.50;99.90
7461;DHT22;6757;52.258;12.840;2023-07-31T07:08:29;15.60;99.90
7461;DHT22;6757;52.258;12.840;2023-07-31T07:10:56;15.60;99.90
7461;DHT22;6757;52.258;12.840;2023-07-31T07:13:23;15.60;99.90
7461;DHT22;6757;52.258;12.840;2023-07-31T07:15:51;15.60;99.90
7461;DHT22;6757;52.258;12.840;2023-07-31T07:18:18;15.70;99.90
7461;DHT22;6757;52.258;12.840;2023-07-31T07:20:47;15.70;99.90
7461;DHT22;6757;52.258;12.840;2023-07-31T07:23:14;15.70;99.90
7461;DHT22;6757;52.258;12.840;2023-07-31T07:25:45;15.70;99.90
7461;DHT22;6757;52.258;12.840;2023-07-31T07:28:13;15.70;99.90
7461;DHT22;6757;52.258;12.840;2023-07-31T07:30:40;15.70;99.90
7461;DHT22;6757;52.258;12.840;2023-07-31T07:33:07;15.70;99.90
7461;DHT22;6757;52.258;12.840;2023-07-31T07:35:34;15.70;99.90
7461;DHT22;6757;52.258;12.840;2023-07-31T07:38:02;15.70;99.90
7461;DHT22;6757;52.258;12.840;2023-07-31T07:40:29;15.80;99.90
7461;DHT22;6757;52.258;12.840;2023-07-31T07:42:57;15.80;99.90
7461;DHT22;6757;52.258;12.840;2023-07-31T07:45:25;15.90;99.90
7461;DHT22;6757;52.258;12.840;2023-07-31T07:47:52;15.80;99.90
7461;DHT22;6757;52.258;12.840;2023-07-31T07:50:19;15.90;99.90
7461;DHT22;6757;52.258;12.840;2023-07-31T07:52:46;15.90;99.90
7461;DHT22;6757;52.258;12.840;2023-07-31T07:55:13;15.90;99.90
7461;DHT22;6757;52.258;12.840;2023-07-31T07:57:40;16.10;99.90
7461;DHT22;6757;52.258;12.840;2023-07-31T08:00:09;16.00;99.90
7461;DHT22;6757;52.258;12.840;2023-07-31T08:02:37;16.00;99.90
7461;DHT22;6757;52.258;12.840;2023-07-31T08:05:04;16.00;99.90
7461;DHT22;6757;52.258;12.840;2023-07-31T08:07:31;16.10;99.90
7461;DHT22;6757;52.258;12.840;2023-07-31T08:09:58;16.10;99.90
7461;DHT22;6757;52.258;12.840;2023-07-31T08:12:25;16.10;99.90
7461;DHT22;6757;52.258;12.840;2023-07-31T08:14:52;16.10;99.90
7461;DHT22;6757;52.258;12.840;2023-07-31T08:17:20;16.00;99.90
7461;DHT22;6757;52.258;12.840;2023-07-31T08:19:47;16.00;99.90
7461;DHT22;6757;52.258;12.840;2023-07-31T08:22:14;15.90;99.90
7461;DHT22;6757;52.258;12.840;2023-07-31T08:24:41;15.80;99.90
7461;DHT22;6757;52.258;12.840;2023-07-31T08:27:08;15.80;99.90
7461;DHT22;6757;52.258;12.840;2023-07-31T08:29:35;15.80;99.90
7461;DHT22;6757;52.258;12.840;2023-07-31T08:32:03;15.70;99.90
7461;DHT22;6757;52.258;12.840;2023-07-31T08:34:31;15.70;99.90
7461;DHT22;6757;52.258;12.840;2023-07-31T08:36:58;15.70;99.90
7461;DHT22;6757;52.258;12.840;2023-07-31T08:39:25;15.70;99.90
7461;DHT22;6757;52.258;12.840;2023-07-31T08:41:58;15.80;99.90
7461;DHT22;6757;52.258;12.840;2023-07-31T08:44:25;15.80;99.90
7461;DHT22;6757;52.258;12.840;2023-07-31T08:46:52;15.90;99.90
7461;DHT22;6757;52.258;12.840;2023-07-31T08:49:20;15.90;99.90
7461;DHT22;6757;52.258;12.840;2023-07-31T08:51:52;16.00;99.90
7461;DHT22;6757;52.258;12.840;2023-07-31T08:54:23;16.10;99.90
7461;DHT22;6757;52.258;12.840;2023-07-31T08:56:50;16.20;99.90
7461;DHT22;6757;52.258;12.840;2023-07-31T08:59:18;16.30;99.90
7461;DHT22;6757;52.258;12.840;2023-07-31T09:01:50;16.40;99.90
7461;DHT22;6757;52.258;12.840;2023-07-31T09:04:20;16.50;99.90
7461;DHT22;6757;52.258;12.840;2023-07-31T09:06:47;16.60;99.90
7461;DHT22;6757;52.258;12.840;2023-07-31T09:09:16;16.70;99.90
7461;DHT22;6757;52.258;12.840;2023-07-31T09:11:43;16.80;99.90
7461;DHT22;6757;52.258;12.840;2023-07-31T09:14:10;16.90;99.90
7461;DHT22;6757;52.258;12.840;2023-07-31T09:16:51;16.90;99.90
7461;DHT22;6757;52.258;12.840;2023-07-31T09:19:25;17.00;99.90
7461;DHT22;6757;52.258;12.840;2023-07-31T09:21:54;17.00;99.90
7461;DHT22;6757;52.258;12.840;2023-07-31T09:24:25;17.10;99.90
7461;DHT22;6757;52.258;12.840;2023-07-31T09:26:54;17.10;99.90
7461;DHT22;6757;52.258;12.840;2023-07-31T09:29:21;17.20;99.90
7461;DHT22;6757;52.258;12.840;2023-07-31T09:31:51;17.20;99.90
7461;DHT22;6757;52.258;12.840;2023-07-31T09:34:18;17.20;99.90
7461;DHT22;6757;52.258;12.840;2023-07-31T09:36:46;17.20;99.90
7461;DHT22;6757;52.258;12.840;2023-07-31T09:39:16;17.20;99.90
7461;DHT22;6757;52.258;12.840;2023-07-31T09:41:47;17.20;99.90
7461;DHT22;6757;52.258;12.840;2023-07-31T09:44:20;17.30;99.90
7461;DHT22;6757;52.258;12.840;2023-07-31T09:46:48;17.30;99.90
7461;DHT22;6757;52.258;12.840;2023-07-31T09:49:15;17.30;99.90
7461;DHT22;6757;52.258;12.840;2023-07-31T09:51:42;17.40;99.90
7461;DHT22;6757;52.258;12.840;2023-07-31T09:54:10;17.40;99.90
7461;DHT22;6757;52.258;12.840;2023-07-31T09:56:42;17.40;99.90
7461;DHT22;6757;52.258;12.840;2023-07-31T09:59:11;17.50;99.90
7461;DHT22;6757;52.258;12.840;2023-07-31T10:01:41;17.50;99.90
7461;DHT22;6757;52.258;12.840;2023-07-31T10:04:09;17.60;99.90
7461;DHT22;6757;52.258;12.840;2023-07-31T10:06:37;17.70;99.90
7461;DHT22;6757;52.258;12.840;2023-07-31T10:09:06;18.00;99.90
7461;DHT22;6757;52.258;12.840;2023-07-31T10:11:38;17.90;99.90
7461;DHT22;6757;52.258;12.840;2023-07-31T10:14:10;18.00;99.90
7461;DHT22;6757;52.258;12.840;2023-07-31T10:16:38;18.10;99.90
7461;DHT22;6757;52.258;12.840;2023-07-31T10:19:06;18.50;99.90
7461;DHT22;6757;52.258;12.840;2023-07-31T10:21:34;18.60;99.90
7461;DHT22;6757;52.258;12.840;2023-07-31T10:24:04;18.80;99.90
7461;DHT22;6757;52.258;12.840;2023-07-31T10:26:32;18.90;99.90
7461;DHT22;6757;52.258;12.840;2023-07-31T10:29:01;19.10;99.90
7461;DHT22;6757;52.258;12.840;2023-07-31T10:31:28;19.20;99.90
7461;DHT22;6757;52.258;12.840;2023-07-31T10:33:57;19.30;99.90
7461;DHT22;6757;52.258;12.840;2023-07-31T10:36:26;19.40;99.90
7461;DHT22;6757;52.258;12.840;2023-07-31T10:38:56;19.40;99.90
7461;DHT22;6757;52.258;12.840;2023-07-31T10:41:28;19.50;99.90
7461;DHT22;6757;52.258;12.840;2023-07-31T10:43:58;19.60;99.90
7461;DHT22;6757;52.258;12.840;2023-07-31T10:46:27;19.60;99.90
7461;DHT22;6757;52.258;12.840;2023-07-31T10:48:58;19.60;99.90
7461;DHT22;6757;52.258;12.840;2023-07-31T10:51:32;19.60;99.90
7461;DHT22;6757;52.258;12.840;2023-07-31T10:54:14;19.60;99.90
7461;DHT22;6757;52.258;12.840;2023-07-31T10:56:45;19.70;99.90
7461;DHT22;6757;52.258;12.840;2023-07-31T10:59:13;19.70;99.90
7461;DHT22;6757;52.258;12.840;2023-07-31T11:01:54;19.70;99.90
7461;DHT22;6757;52.258;12.840;2023-07-31T11:04:23;19.70;99.90
7461;DHT22;6757;52.258;12.840;2023-07-31T11:06:57;19.70;99.90
7461;DHT22;6757;52.258;12.840;2023-07-31T11:09:28;19.70;99.90
7461;DHT22;6757;52.258;12.840;2023-07-31T11:11:57;19.70;99.90
7461;DHT22;6757;52.258;12.840;2023-07-31T11:14:24;19.70;99.90
7461;DHT22;6757;52.258;12.840;2023-07-31T11:16:52;19.70;99.90
7461;DHT22;6757;52.258;12.840;2023-07-31T11:19:23;19.70;99.90
7461;DHT22;6757;52.258;12.840;2023-07-31T11:21:51;19.70;99.90
7461;DHT22;6757;52.258;12.840;2023-07-31T11:24:18;19.70;99.90
7461;DHT22;6757;52.258;12.840;2023-07-31T11:26:50;19.70;99.90
7461;DHT22;6757;52.258;12.840;2023-07-31T11:29:17;19.70;99.90
7461;DHT22;6757;52.258;12.840;2023-07-31T11:31:45;19.70;99.90
7461;DHT22;6757;52.258;12.840;2023-07-31T11:34:14;19.70;99.90
7461;DHT22;6757;52.258;12.840;2023-07-31T11:36:52;19.70;99.90
7461;DHT22;6757;52.258;12.840;2023-07-31T11:39:20;19.70;99.90
7461;DHT22;6757;52.258;12.840;2023-07-31T11:41:47;19.70;99.90
7461;DHT22;6757;52.258;12.840;2023-07-31T11:44:14;19.70;99.90
7461;DHT22;6757;52.258;12.840;2023-07-31T11:46:41;19.70;99.90
7461;DHT22;6757;52.258;12.840;2023-07-31T11:49:09;19.70;99.90
7461;DHT22;6757;52.258;12.840;2023-07-31T11:51:37;19.70;99.90
7461;DHT22;6757;52.258;12.840;2023-07-31T11:54:04;19.60;99.90
7461;DHT22;6757;52.258;12.840;2023-07-31T11:56:32;19.60;99.90
7461;DHT22;6757;52.258;12.840;2023-07-31T11:58:59;19.60;99.90
7461;DHT22;6757;52.258;12.840;2023-07-31T12:01:28;19.60;99.90
7461;DHT22;6757;52.258;12.840;2023-07-31T12:03:56;19.60;99.90
7461;DHT22;6757;52.258;12.840;2023-07-31T12:06:32;19.60;99.90
7461;DHT22;6757;52.258;12.840;2023-07-31T12:09:03;19.60;99.90
7461;DHT22;6757;52.258;12.840;2023-07-31T12:11:30;19.60;99.90
7461;DHT22;6757;52.258;12.840;2023-07-31T12:13:57;19.70;99.90
7461;DHT22;6757;52.258;12.840;2023-07-31T12:16:26;19.80;99.90
7461;DHT22;6757;52.258;12.840;2023-07-31T12:18:54;19.90;99.90
7461;DHT22;6757;52.258;12.840;2023-07-31T12:21:21;20.10;99.90
7461;DHT22;6757;52.258;12.840;2023-07-31T12:23:48;20.20;99.90
7461;DHT22;6757;52.258;12.840;2023-07-31T12:26:17;20.20;99.90
7461;DHT22;6757;52.258;12.840;2023-07-31T12:28:45;20.30;99.90
7461;DHT22;6757;52.258;12.840;2023-07-31T12:31:15;20.40;99.90
7461;DHT22;6757;52.258;12.840;2023-07-31T12:33:44;20.30;99.90
7461;DHT22;6757;52.258;12.840;2023-07-31T12:36:13;20.50;99.90
7461;DHT22;6757;52.258;12.840;2023-07-31T12:38:41;20.50;99.90
7461;DHT22;6757;52.258;12.840;2023-07-31T12:41:09;20.60;99.90
7461;DHT22;6757;52.258;12.840;2023-07-31T12:43:38;20.70;99.90
7461;DHT22;6757;52.258;12.840;2023-07-31T12:46:06;20.80;99.90
7461;DHT22;6757;52.258;12.840;2023-07-31T12:48:34;20.90;99.90
7461;DHT22;6757;52.258;12.840;2023-07-31T12:51:03;21.00;99.90
7461;DHT22;6757;52.258;12.840;2023-07-31T12:53:32;21.00;99.90
7461;DHT22;6757;52.258;12.840;2023-07-31T12:55:59;21.10;99.90
7461;DHT22;6757;52.258;12.840;2023-07-31T12:58:26;21.10;99.90
7461;DHT22;6757;52.258;12.840;2023-07-31T13:00:54;21.10;99.90
7461;DHT22;6757;52.258;12.840;2023-07-31T13:03:21;21.20;99.90
7461;DHT22;6757;52.258;12.840;2023-07-31T13:05:48;21.40;99.90
7461;DHT22;6757;52.258;12.840;2023-07-31T13:08:15;21.50;99.90
7461;DHT22;6757;52.258;12.840;2023-07-31T13:10:43;21.60;99.90
7461;DHT22;6757;52.258;12.840;2023-07-31T13:13:10;21.60;99.90
7461;DHT22;6757;52.258;12.840;2023-07-31T13:15:37;21.50;99.90
7461;DHT22;6757;52.258;12.840;2023-07-31T13:18:05;21.60;99.90
7461;DHT22;6757;52.258;12.840;2023-07-31T13:20:32;21.60;99.90
7461;DHT22;6757;52.258;12.840;2023-07-31T13:22:59;21.60;99.90
7461;DHT22;6757;52.258;12.840;2023-07-31T13:25:26;21.80;99.90
7461;DHT22;6757;52.258;12.840;2023-07-31T13:27:54;21.50;99.90
7461;DHT22;6757;52.258;12.840;2023-07-31T13:30:21;21.40;99.90
7461;DHT22;6757;52.258;12.840;2023-07-31T13:32:48;21.30;99.90
7461;DHT22;6757;52.258;12.840;2023-07-31T13:35:17;21.20;99.90
7461;DHT22;6757;52.258;12.840;2023-07-31T13:37:44;21.20;99.90
7461;DHT22;6757;52.258;12.840;2023-07-31T13:40:11;21.10;99.90
7461;DHT22;6757;52.258;12.840;2023-07-31T13:42:38;21.10;99.90
7461;DHT22;6757;52.258;12.840;2023-07-31T13:45:06;21.00;99.90
7461;DHT22;6757;52.258;12.840;2023-07-31T13:47:33;21.10;99.90
7461;DHT22;6757;52.258;12.840;2023-07-31T13:50:01;21.10;99.90
7461;DHT22;6757;52.258;12.840;2023-07-31T13:52:29;21.20;99.90
7461;DHT22;6757;52.258;12.840;2023-07-31T13:54:56;21.30;99.90
7461;DHT22;6757;52.258;12.840;2023-07-31T13:57:23;21.30;99.90
7461;DHT22;6757;52.258;12.840;2023-07-31T13:59:50;21.40;99.90
7461;DHT22;6757;52.258;12.840;2023-07-31T14:02:17;21.50;99.90
7461;DHT22;6757;52.258;12.840;2023-07-31T14:04:44;21.60;99.90
7461;DHT22;6757;52.258;12.840;2023-07-31T14:07:11;21.60;99.90
7461;DHT22;6757;52.258;12.840;2023-07-31T14:09:39;21.60;99.90
7461;DHT22;6757;52.258;12.840;2023-07-31T14:12:06;21.70;99.90
7461;DHT22;6757;52.258;12.840;2023-07-31T14:14:33;21.60;99.90
7461;DHT22;6757;52.258;12.840;2023-07-31T14:17:00;21.70;99.90
7461;DHT22;6757;52.258;12.840;2023-07-31T14:19:27;21.60;99.90
7461;DHT22;6757;52.258;12.840;2023-07-31T14:21:54;21.50;99.90
7461;DHT22;6757;52.258;12.840;2023-07-31T14:24:21;21.50;99.90
7461;DHT22;6757;52.258;12.840;2023-07-31T14:26:50;21.40;99.90
7461;DHT22;6757;52.258;12.840;2023-07-31T14:29:17;21.40;99.90
7461;DHT22;6757;52.258;12.840;2023-07-31T14:31:43;21.30;99.90
7461;DHT22;6757;52.258;12.840;2023-07-31T14:34:11;21.30;99.90
7461;DHT22;6757;52.258;12.840;2023-07-31T14:36:38;21.20;99.90
7461;DHT22;6757;52.258;12.840;2023-07-31T14:39:05;21.20;99.90
7461;DHT22;6757;52.258;12.840;2023-07-31T14:41:32;21.10;99.90
7461;DHT22;6757;52.258;12.840;2023-07-31T14:44:00;21.10;99.90
7461;DHT22;6757;52.258;12.840;2023-07-31T14:46:27;21.20;99.90
7461;DHT22;6757;52.258;12.840;2023-07-31T14:48:54;21.10;99.90
7461;DHT22;6757;52.258;12.840;2023-07-31T14:51:21;21.10;99.90
7461;DHT22;6757;52.258;12.840;2023-07-31T14:53:48;21.20;99.90
7461;DHT22;6757;52.258;12.840;2023-07-31T14:56:15;21.20;99.90
7461;DHT22;6757;52.258;12.840;2023-07-31T14:58:41;21.30;99.90
7461;DHT22;6757;52.258;12.840;2023-07-31T15:01:10;21.40;99.90
7461;DHT22;6757;52.258;12.840;2023-07-31T15:03:37;21.40;99.90
7461;DHT22;6757;52.258;12.840;2023-07-31T15:06:04;21.50;99.90
7461;DHT22;6757;52.258;12.840;2023-07-31T15:08:33;21.40;99.90
7461;DHT22;6757;52.258;12.840;2023-07-31T15:11:01;21.60;99.90
7461;DHT22;6757;52.258;12.840;2023-07-31T15:13:28;21.60;99.90
7461;DHT22;6757;52.258;12.840;2023-07-31T15:15:55;21.60;99.90
7461;DHT22;6757;52.258;12.840;2023-07-31T15:18:25;21.50;99.90
7461;DHT22;6757;52.258;12.840;2023-07-31T15:20:51;21.60;99.90
7461;DHT22;6757;52.258;12.840;2023-07-31T15:23:19;21.50;99.90
7461;DHT22;6757;52.258;12.840;2023-07-31T15:25:46;21.50;99.90
7461;DHT22;6757;52.258;12.840;2023-07-31T15:28:13;21.50;99.90
7461;DHT22;6757;52.258;12.840;2023-07-31T15:30:41;21.50;99.90
7461;DHT22;6757;52.258;12.840;2023-07-31T15:33:08;21.40;99.90
7461;DHT22;6757;52.258;12.840;2023-07-31T15:35:36;21.40;99.90
7461;DHT22;6757;52.258;12.840;2023-07-31T15:38:03;21.30;99.90
7461;DHT22;6757;52.258;12.840;2023-07-31T15:40:30;21.30;99.90
7461;DHT22;6757;52.258;12.840;2023-07-31T15:42:57;21.20;99.90
7461;DHT22;6757;52.258;12.840;2023-07-31T15:45:26;21.10;99.90
7461;DHT22;6757;52.258;12.840;2023-07-31T15:47:53;21.10;99.90
7461;DHT22;6757;52.258;12.840;2023-07-31T15:50:19;21.10;99.90